sensor_id;sensor_type;location;lat;lon;timestamp;pressure;altitude;pressure_sealevel;temperature;humidity
2761;BME280;15420;48.636;9.798;2023-02-17T00:03:38;97517.91;;;10.25;79.74
2761;BME280;15420;48.636;9.798;2023-02-17T00:06:09;97529.97;;;10.26;79.08
2761;BME280;15420;48.636;9.798;2023-02-17T00:08:38;97528.22;;;10.25;78.93
2761;BME280;15420;48.636;9.798;2023-02-17T00:11:07;97524.75;;;10.24;79.31
2761;BME280;15420;48.636;9.798;2023-02-17T00:13:35;97524.75;;;10.24;79.39
2761;BME280;15420;48.636;9.798;2023-02-17T00:16:09;97526.53;;;10.25;79.11
2761;BME280;15420;48.636;9.798;2023-02-17T00:18:40;97519.56;;;10.23;79.31
2761;BME280;15420;48.636;9.798;2023-02-17T00:21:14;97516.13;;;10.22;80.12
2761;BME280;15420;48.636;9.798;2023-02-17T00:23:40;97522.03;;;10.20;79.94
2761;BME280;15420;48.636;9.798;2023-02-17T00:26:07;97512.53;;;10.19;80.67
2761;BME280;15420;48.636;9.798;2023-02-17T00:28:33;97513.34;;;10.18;80.29
2761;BME280;15420;48.636;9.798;2023-02-17T00:31:08;97510.78;;;10.18;80.12
2761;BME280;15420;48.636;9.798;2023-02-17T00:33:35;97518.34;;;10.13;80.39
2761;BME280;15420;48.636;9.798;2023-02-17T00:36:05;97515.72;;;10.11;79.95
2761;BME280;15420;48.636;9.798;2023-02-17T00:38:32;97513.03;;;10.08;80.31
2761;BME280;15420;48.636;9.798;2023-02-17T00:40:59;97509.53;;;10.06;80.16
2761;BME280;15420;48.636;9.798;2023-02-17T00:43:25;97510.47;;;10.08;79.75
2761;BME280;15420;48.636;9.798;2023-02-17T00:45:53;97509.56;;;10.08;80.38
2761;BME280;15420;48.636;9.798;2023-02-17T00:48:20;97505.31;;;10.08;79.89
2761;BME280;15420;48.636;9.798;2023-02-17T00:50:46;97514.72;;;10.08;80.22
2761;BME280;15420;48.636;9.798;2023-02-17T00:53:15;97511.28;;;10.07;79.91
2761;BME280;15420;48.636;9.798;2023-02-17T00:55:41;97511.28;;;10.07;79.50
2761;BME280;15420;48.636;9.798;2023-02-17T00:58:09;97514.72;;;10.08;79.43
2761;BME280;15420;48.636;9.798;2023-02-17T01:00:38;97515.66;;;10.10;79.00
2761;BME280;15420;48.636;9.798;2023-02-17T01:03:06;97519.09;;;10.10;79.52
2761;BME280;15420;48.636;9.798;2023-02-17T01:05:32;97523.38;;;10.10;79.75
2761;BME280;15420;48.636;9.798;2023-02-17T01:07:59;97519.06;;;10.09;79.72
2761;BME280;15420;48.636;9.798;2023-02-17T01:10:25;97516.47;;;10.09;79.38
2761;BME280;15420;48.636;9.798;2023-02-17T01:12:51;97519.88;;;10.08;79.71
2761;BME280;15420;48.636;9.798;2023-02-17T01:15:17;97518.19;;;10.08;79.94
2761;BME280;15420;48.636;9.798;2023-02-17T01:17:46;97519.88;;;10.08;79.96
2761;BME280;15420;48.636;9.798;2023-02-17T01:20:14;97518.13;;;10.07;80.46
2761;BME280;15420;48.636;9.798;2023-02-17T01:22:43;97512.06;;;10.05;80.86
2761;BME280;15420;48.636;9.798;2023-02-17T01:25:09;97510.25;;;10.02;81.26
2761;BME280;15420;48.636;9.798;2023-02-17T01:27:35;97508.50;;;10.01;81.61
2761;BME280;15420;48.636;9.798;2023-02-17T01:30:02;97503.19;;;9.97;82.23
2761;BME280;15420;48.636;9.798;2023-02-17T01:32:31;97504.00;;;9.96;82.52
2761;BME280;15420;48.636;9.798;2023-02-17T01:34:59;97498.81;;;9.94;82.11
2761;BME280;15420;48.636;9.798;2023-02-17T01:37:28;97491.84;;;9.92;82.59
2761;BME280;15420;48.636;9.798;2023-02-17T01:39:54;97497.81;;;9.91;83.00
2761;BME280;15420;48.636;9.798;2023-02-17T01:42:20;97489.16;;;9.89;82.96
2761;BME280;15420;48.636;9.798;2023-02-17T01:50:32;97481.41;;;9.87;82.39
2761;BME280;15420;48.636;9.798;2023-02-17T01:53:00;97475.38;;;9.87;82.58
2761;BME280;15420;48.636;9.798;2023-02-17T01:55:32;97471.97;;;9.88;82.04
2761;BME280;15420;48.636;9.798;2023-02-17T01:57:59;97474.50;;;9.86;81.81
2761;BME280;15420;48.636;9.798;2023-02-17T02:00:28;97471.00;;;9.84;81.74
2761;BME280;15420;48.636;9.798;2023-02-17T02:02:57;97469.28;;;9.84;81.57
2761;BME280;15420;48.636;9.798;2023-02-17T02:05:25;97470.94;;;9.82;81.50
2761;BME280;15420;48.636;9.798;2023-02-17T02:07:54;97467.50;;;9.82;82.37
2761;BME280;15420;48.636;9.798;2023-02-17T02:10:20;97472.59;;;9.80;81.46
2761;BME280;15420;48.636;9.798;2023-02-17T02:12:49;97461.41;;;9.80;81.56
2761;BME280;15420;48.636;9.798;2023-02-17T02:15:18;97472.59;;;9.80;82.15
2761;BME280;15420;48.636;9.798;2023-02-17T02:18:10;97455.44;;;9.81;81.94
2761;BME280;15420;48.636;9.798;2023-02-17T02:23:53;97452.81;;;9.79;82.32
2761;BME280;15420;48.636;9.798;2023-02-17T02:32:35;97449.31;;;9.77;81.76
2761;BME280;15420;48.636;9.798;2023-02-17T02:41:03;97445.09;;;9.79;81.23
2761;BME280;15420;48.636;9.798;2023-02-17T02:43:31;97445.09;;;9.79;81.61
2761;BME280;15420;48.636;9.798;2023-02-17T02:46:02;97438.25;;;9.80;81.38
2761;BME280;15420;48.636;9.798;2023-02-17T02:48:29;97434.81;;;9.79;81.52
2761;BME280;15420;48.636;9.798;2023-02-17T03:02:21;97437.44;;;9.81;81.72
2761;BME280;15420;48.636;9.798;2023-02-17T03:10:50;97432.22;;;9.79;81.29
2761;BME280;15420;48.636;9.798;2023-02-17T03:13:18;97435.63;;;9.78;81.40
2761;BME280;15420;48.636;9.798;2023-02-17T03:15:48;97438.25;;;9.80;81.92
2761;BME280;15420;48.636;9.798;2023-02-17T03:18:14;97437.38;;;9.79;81.69
2761;BME280;15420;48.636;9.798;2023-02-17T03:20:55;97440.88;;;9.81;82.55
2761;BME280;15420;48.636;9.798;2023-02-17T03:23:24;97432.22;;;9.79;82.04
2761;BME280;15420;48.636;9.798;2023-02-17T03:25:53;97435.69;;;9.80;82.07
2761;BME280;15420;48.636;9.798;2023-02-17T03:28:19;97439.13;;;9.80;82.33
2761;BME280;15420;48.636;9.798;2023-02-17T03:30:45;97430.53;;;9.80;82.32
2761;BME280;15420;48.636;9.798;2023-02-17T03:33:11;97429.72;;;9.81;82.69
2761;BME280;15420;48.636;9.798;2023-02-17T03:35:37;97422.00;;;9.81;82.19
2761;BME280;15420;48.636;9.798;2023-02-17T03:38:04;97420.25;;;9.80;81.74
2761;BME280;15420;48.636;9.798;2023-02-17T03:40:32;97424.63;;;9.82;82.07
2761;BME280;15420;48.636;9.798;2023-02-17T03:42:58;97419.41;;;9.81;81.93
2761;BME280;15420;48.636;9.798;2023-02-17T03:45:24;97419.47;;;9.82;82.39
2761;BME280;15420;48.636;9.798;2023-02-17T03:47:52;97410.00;;;9.81;81.76
2761;BME280;15420;48.636;9.798;2023-02-17T03:50:20;97409.19;;;9.82;81.32
2761;BME280;15420;48.636;9.798;2023-02-17T03:52:49;97410.06;;;9.83;81.50
2761;BME280;15420;48.636;9.798;2023-02-17T03:55:17;97411.75;;;9.82;81.18
2761;BME280;15420;48.636;9.798;2023-02-17T03:57:43;97413.50;;;9.83;81.20
2761;BME280;15420;48.636;9.798;2023-02-17T04:00:12;97410.97;;;9.85;81.56
2761;BME280;15420;48.636;9.798;2023-02-17T04:02:41;97404.91;;;9.83;81.61
2761;BME280;15420;48.636;9.798;2023-02-17T04:05:10;97409.22;;;9.84;81.13
2761;BME280;15420;48.636;9.798;2023-02-17T04:07:36;97410.09;;;9.84;80.88
2761;BME280;15420;48.636;9.798;2023-02-17T04:10:03;97413.50;;;9.83;80.98
2761;BME280;15420;48.636;9.798;2023-02-17T04:12:31;97415.25;;;9.84;79.97
2761;BME280;15420;48.636;9.798;2023-02-17T04:14:57;97414.44;;;9.86;79.70
2761;BME280;15420;48.636;9.798;2023-02-17T04:17:24;97417.88;;;9.86;80.07
2761;BME280;15420;48.636;9.798;2023-02-17T04:19:50;97423.91;;;9.87;79.58
2761;BME280;15420;48.636;9.798;2023-02-17T04:22:18;97422.16;;;9.86;79.78
2761;BME280;15420;48.636;9.798;2023-02-17T04:24:49;97425.66;;;9.88;79.94
2761;BME280;15420;48.636;9.798;2023-02-17T04:27:15;97423.06;;;9.88;79.60
2761;BME280;15420;48.636;9.798;2023-02-17T04:29:41;97429.97;;;9.89;79.58
2761;BME280;15420;48.636;9.798;2023-02-17T04:32:09;97424.81;;;9.89;79.78
2761;BME280;15420;48.636;9.798;2023-02-17T04:34:35;97435.13;;;9.89;79.34
2761;BME280;15420;48.636;9.798;2023-02-17T04:37:04;97433.41;;;9.89;78.84
2761;BME280;15420;48.636;9.798;2023-02-17T04:39:30;97426.63;;;9.91;78.05
2761;BME280;15420;48.636;9.798;2023-02-17T04:41:58;97426.63;;;9.91;78.05
2761;BME280;15420;48.636;9.798;2023-02-17T04:44:24;97427.50;;;9.92;78.77
2761;BME280;15420;48.636;9.798;2023-02-17T04:46:52;97420.66;;;9.92;77.96
2761;BME280;15420;48.636;9.798;2023-02-17T04:49:19;97436.97;;;9.93;78.03
2761;BME280;15420;48.636;9.798;2023-02-17T04:51:45;97434.41;;;9.93;78.29
2761;BME280;15420;48.636;9.798;2023-02-17T04:54:11;97424.97;;;9.93;78.82
2761;BME280;15420;48.636;9.798;2023-02-17T04:56:37;97425.84;;;9.94;78.90
2761;BME280;15420;48.636;9.798;2023-02-17T04:59:03;97427.56;;;9.93;78.87
2761;BME280;15420;48.636;9.798;2023-02-17T05:01:32;97424.09;;;9.93;79.00
2761;BME280;15420;48.636;9.798;2023-02-17T05:03:58;97429.25;;;9.93;79.59
2761;BME280;15420;48.636;9.798;2023-02-17T05:06:26;97425.81;;;9.92;79.96
2761;BME280;15420;48.636;9.798;2023-02-17T05:08:52;97412.94;;;9.92;79.92
2761;BME280;15420;48.636;9.798;2023-02-17T05:11:19;97416.34;;;9.91;79.25
2761;BME280;15420;48.636;9.798;2023-02-17T05:13:45;97418.91;;;9.91;79.90
2761;BME280;15420;48.636;9.798;2023-02-17T05:16:11;97413.81;;;9.93;79.49
2761;BME280;15420;48.636;9.798;2023-02-17T05:18:37;97402.63;;;9.92;79.44
2761;BME280;15420;48.636;9.798;2023-02-17T05:21:06;97406.91;;;9.92;80.40
2761;BME280;15420;48.636;9.798;2023-02-17T05:23:32;97411.22;;;9.93;80.60
2761;BME280;15420;48.636;9.798;2023-02-17T05:26:06;97406.03;;;9.91;80.28
2761;BME280;15420;48.636;9.798;2023-02-17T05:28:34;97399.19;;;9.92;80.84
2761;BME280;15420;48.636;9.798;2023-02-17T05:31:00;97394.00;;;9.90;80.76
2761;BME280;15420;48.636;9.798;2023-02-17T05:33:32;97395.69;;;9.90;80.72
2761;BME280;15420;48.636;9.798;2023-02-17T05:36:04;97392.28;;;9.91;80.33
2761;BME280;15420;48.636;9.798;2023-02-17T05:38:31;97387.97;;;9.90;80.37
2761;BME280;15420;48.636;9.798;2023-02-17T05:40:57;97394.81;;;9.89;80.17
2761;BME280;15420;48.636;9.798;2023-02-17T05:43:24;97393.06;;;9.88;80.02
2761;BME280;15420;48.636;9.798;2023-02-17T05:45:50;97393.00;;;9.87;80.20
2761;BME280;15420;48.636;9.798;2023-02-17T05:48:16;97396.41;;;9.86;80.70
2761;BME280;15420;48.636;9.798;2023-02-17T05:50:42;97403.22;;;9.83;80.13
2761;BME280;15420;48.636;9.798;2023-02-17T05:53:09;97402.34;;;9.83;80.50
2761;BME280;15420;48.636;9.798;2023-02-17T05:55:35;97402.22;;;9.80;80.95
2761;BME280;15420;48.636;9.798;2023-02-17T05:58:01;97411.66;;;9.79;80.76
2761;BME280;15420;48.636;9.798;2023-02-17T06:00:27;97407.38;;;9.80;81.25
2761;BME280;15420;48.636;9.798;2023-02-17T06:02:54;97414.22;;;9.79;81.44
2761;BME280;15420;48.636;9.798;2023-02-17T06:05:20;97415.03;;;9.78;81.93
2761;BME280;15420;48.636;9.798;2023-02-17T06:07:48;97425.34;;;9.78;81.22
2761;BME280;15420;48.636;9.798;2023-02-17T06:10:17;97416.75;;;9.78;81.23
2761;BME280;15420;48.636;9.798;2023-02-17T06:12:43;97421.88;;;9.78;81.10
2761;BME280;15420;48.636;9.798;2023-02-17T06:15:09;97418.44;;;9.77;81.63
2761;BME280;15420;48.636;9.798;2023-02-17T06:17:40;97424.47;;;9.78;81.73
2761;BME280;15420;48.636;9.798;2023-02-17T06:20:08;97423.59;;;9.77;81.38
2761;BME280;15420;48.636;9.798;2023-02-17T06:22:36;97424.41;;;9.76;80.75
2761;BME280;15420;48.636;9.798;2023-02-17T06:25:03;97424.41;;;9.76;81.20
2761;BME280;15420;48.636;9.798;2023-02-17T06:27:34;97434.81;;;9.79;80.67
2761;BME280;15420;48.636;9.798;2023-02-17T06:30:01;97432.19;;;9.78;80.96
2761;BME280;15420;48.636;9.798;2023-02-17T06:32:31;97435.63;;;9.78;80.76
2761;BME280;15420;48.636;9.798;2023-02-17T06:34:59;97432.22;;;9.79;80.73
2761;BME280;15420;48.636;9.798;2023-02-17T06:37:25;97428.84;;;9.80;80.99
2761;BME280;15420;48.636;9.798;2023-02-17T06:39:51;97434.81;;;9.79;81.10
2761;BME280;15420;48.636;9.798;2023-02-17T06:42:19;97431.41;;;9.80;82.06
2761;BME280;15420;48.636;9.798;2023-02-17T06:44:45;97437.44;;;9.81;81.80
2761;BME280;15420;48.636;9.798;2023-02-17T06:47:14;97430.59;;;9.81;82.30
2761;BME280;15420;48.636;9.798;2023-02-17T06:49:40;97428.00;;;9.81;81.88
2761;BME280;15420;48.636;9.798;2023-02-17T06:52:06;97430.63;;;9.83;82.43
2761;BME280;15420;48.636;9.798;2023-02-17T06:54:35;97444.38;;;9.83;82.38
2761;BME280;15420;48.636;9.798;2023-02-17T06:57:03;97440.09;;;9.84;82.36
2761;BME280;15420;48.636;9.798;2023-02-17T06:59:35;97434.13;;;9.85;82.78
2761;BME280;15420;48.636;9.798;2023-02-17T07:02:01;97440.97;;;9.84;82.81
2761;BME280;15420;48.636;9.798;2023-02-17T07:04:27;97441.91;;;9.87;82.39
2761;BME280;15420;48.636;9.798;2023-02-17T07:06:53;97434.19;;;9.87;82.79
2761;BME280;15420;48.636;9.798;2023-02-17T07:09:19;97445.41;;;9.89;82.49
2761;BME280;15420;48.636;9.798;2023-02-17T07:11:45;97453.13;;;9.89;82.83
2761;BME280;15420;48.636;9.798;2023-02-17T07:14:16;97447.16;;;9.90;82.87
2761;BME280;15420;48.636;9.798;2023-02-17T07:16:44;97451.50;;;9.91;83.07
2761;BME280;15420;48.636;9.798;2023-02-17T07:19:15;97449.78;;;9.91;82.14
2761;BME280;15420;48.636;9.798;2023-02-17T07:21:41;97451.53;;;9.92;82.69
2761;BME280;15420;48.636;9.798;2023-02-17T07:24:10;97455.03;;;9.94;82.78
2761;BME280;15420;48.636;9.798;2023-02-17T07:26:39;97452.47;;;9.94;83.25
2761;BME280;15420;48.636;9.798;2023-02-17T07:29:06;97449.94;;;9.96;83.38
2761;BME280;15420;48.636;9.798;2023-02-17T07:31:33;97452.63;;;9.99;83.32
2761;BME280;15420;48.636;9.798;2023-02-17T07:34:01;97453.59;;;10.02;83.62
2761;BME280;15420;48.636;9.798;2023-02-17T07:36:27;97451.09;;;10.04;83.76
2761;BME280;15420;48.636;9.798;2023-02-17T07:38:54;97445.09;;;10.05;84.05
2761;BME280;15420;48.636;9.798;2023-02-17T07:41:23;97452.13;;;10.09;83.50
2761;BME280;15420;48.636;9.798;2023-02-17T07:43:56;97461.59;;;10.10;84.21
2761;BME280;15420;48.636;9.798;2023-02-17T07:46:26;97456.50;;;10.11;83.90
2761;BME280;15420;48.636;9.798;2023-02-17T07:48:52;97457.41;;;10.13;83.63
2761;BME280;15420;48.636;9.798;2023-02-17T07:51:24;97454.94;;;10.16;83.72
2761;BME280;15420;48.636;9.798;2023-02-17T07:53:50;97455.00;;;10.18;83.76
2761;BME280;15420;48.636;9.798;2023-02-17T07:56:24;97446.59;;;10.22;84.07
2761;BME280;15420;48.636;9.798;2023-02-17T07:58:51;97442.34;;;10.24;84.29
2761;BME280;15420;48.636;9.798;2023-02-17T08:01:20;97447.59;;;10.27;84.26
2761;BME280;15420;48.636;9.798;2023-02-17T08:03:47;97440.84;;;10.31;84.36
2761;BME280;15420;48.636;9.798;2023-02-17T08:06:18;97447.81;;;10.33;84.60
2761;BME280;15420;48.636;9.798;2023-02-17T08:08:49;97458.22;;;10.36;84.54
2761;BME280;15420;48.636;9.798;2023-02-17T08:11:34;97455.72;;;10.39;84.82
2761;BME280;15420;48.636;9.798;2023-02-17T08:14:23;97448.91;;;10.41;85.17
2761;BME280;15420;48.636;9.798;2023-02-17T08:16:52;97460.22;;;10.46;84.85
2761;BME280;15420;48.636;9.798;2023-02-17T08:19:21;97464.59;;;10.49;84.81
2761;BME280;15420;48.636;9.798;2023-02-17T08:21:48;97461.34;;;10.55;84.78
2761;BME280;15420;48.636;9.798;2023-02-17T08:24:15;97472.69;;;10.60;84.61
2761;BME280;15420;48.636;9.798;2023-02-17T08:26:41;97453.03;;;10.63;84.67
2761;BME280;15420;48.636;9.798;2023-02-17T08:29:08;97461.78;;;10.68;84.68
2761;BME280;15420;48.636;9.798;2023-02-17T08:31:35;97463.69;;;10.74;84.56
2761;BME280;15420;48.636;9.798;2023-02-17T08:34:07;97469.03;;;10.80;84.72
2761;BME280;15420;48.636;9.798;2023-02-17T08:36:34;97463.19;;;10.86;85.13
2761;BME280;15420;48.636;9.798;2023-02-17T08:39:10;97472.81;;;10.91;85.41
2761;BME280;15420;48.636;9.798;2023-02-17T08:41:37;97470.31;;;10.94;85.20
2761;BME280;15420;48.636;9.798;2023-02-17T08:44:10;97469.63;;;11.00;85.39
2761;BME280;15420;48.636;9.798;2023-02-17T08:46:37;97475.75;;;11.03;84.94
2761;BME280;15420;48.636;9.798;2023-02-17T08:49:05;97463.84;;;11.07;84.83
2761;BME280;15420;48.636;9.798;2023-02-17T08:51:34;97467.47;;;11.13;84.88
2761;BME280;15420;48.636;9.798;2023-02-17T08:54:04;97462.50;;;11.20;84.56
2761;BME280;15420;48.636;9.798;2023-02-17T08:56:31;97467.78;;;11.24;83.94
2761;BME280;15420;48.636;9.798;2023-02-17T08:58:57;97467.19;;;11.33;84.07
2761;BME280;15420;48.636;9.798;2023-02-17T09:01:27;97462.19;;;11.39;83.00
2761;BME280;15420;48.636;9.798;2023-02-17T09:03:57;97479.56;;;11.46;82.97
2761;BME280;15420;48.636;9.798;2023-02-17T09:06:31;97472.78;;;11.50;82.25
2761;BME280;15420;48.636;9.798;2023-02-17T09:08:57;97470.38;;;11.56;83.05
2761;BME280;15420;48.636;9.798;2023-02-17T09:11:23;97468.81;;;11.61;82.51
2761;BME280;15420;48.636;9.798;2023-02-17T09:13:50;97464.66;;;11.66;82.93
2761;BME280;15420;48.636;9.798;2023-02-17T09:16:18;97471.66;;;11.70;83.05
2761;BME280;15420;48.636;9.798;2023-02-17T09:18:46;97461.50;;;11.76;83.94
2761;BME280;15420;48.636;9.798;2023-02-17T09:21:15;97472.00;;;11.82;84.68
2761;BME280;15420;48.636;9.798;2023-02-17T09:23:45;97472.22;;;11.90;84.74
2761;BME280;15420;48.636;9.798;2023-02-17T09:26:15;97467.25;;;11.97;85.47
2761;BME280;15420;48.636;9.798;2023-02-17T09:28:43;97470.84;;;12.02;86.21
2761;BME280;15420;48.636;9.798;2023-02-17T09:31:11;97468.63;;;12.16;87.36
2761;BME280;15420;48.636;9.798;2023-02-17T09:33:39;97476.53;;;12.22;86.48
2761;BME280;15420;48.636;9.798;2023-02-17T09:36:08;97482.69;;;12.27;85.86
2761;BME280;15420;48.636;9.798;2023-02-17T09:38:37;97471.66;;;12.34;86.29
2761;BME280;15420;48.636;9.798;2023-02-17T09:41:15;97477.09;;;12.45;86.15
2761;BME280;15420;48.636;9.798;2023-02-17T09:43:42;97479.84;;;12.53;87.13
2761;BME280;15420;48.636;9.798;2023-02-17T09:46:29;97487.00;;;12.63;86.79
2761;BME280;15420;48.636;9.798;2023-02-17T09:49:06;97484.66;;;12.73;86.07
2761;BME280;15420;48.636;9.798;2023-02-17T09:57:28;97491.25;;;12.97;85.61
2761;BME280;15420;48.636;9.798;2023-02-17T10:00:27;97484.53;;;13.05;84.62
2761;BME280;15420;48.636;9.798;2023-02-17T10:05:32;97487.25;;;13.11;86.03
2761;BME280;15420;48.636;9.798;2023-02-17T10:08:11;97491.66;;;13.15;86.46
2761;BME280;15420;48.636;9.798;2023-02-17T10:10:46;97506.47;;;13.19;86.22
2761;BME280;15420;48.636;9.798;2023-02-17T10:13:17;97514.25;;;13.21;86.19
2761;BME280;15420;48.636;9.798;2023-02-17T10:15:50;97507.47;;;13.26;87.88
2761;BME280;15420;48.636;9.798;2023-02-17T10:18:25;97509.16;;;13.24;87.95
2761;BME280;15420;48.636;9.798;2023-02-17T10:23:27;97514.31;;;13.24;88.59
2761;BME280;15420;48.636;9.798;2023-02-17T10:34:04;97516.94;;;13.25;89.35
2761;BME280;15420;48.636;9.798;2023-02-17T10:39:31;97506.56;;;13.24;88.83
2761;BME280;15420;48.636;9.798;2023-02-17T10:42:00;97513.47;;;13.25;89.68
2761;BME280;15420;48.636;9.798;2023-02-17T10:44:26;97520.44;;;13.27;88.79
2761;BME280;15420;48.636;9.798;2023-02-17T10:46:55;97529.84;;;13.24;89.15
2761;BME280;15420;48.636;9.798;2023-02-17T10:49:27;97527.28;;;13.25;89.53
2761;BME280;15420;48.636;9.798;2023-02-17T10:52:00;97524.75;;;13.27;89.63
2761;BME280;15420;48.636;9.798;2023-02-17T10:54:36;97526.50;;;13.28;89.93
2761;BME280;15420;48.636;9.798;2023-02-17T10:57:07;97514.38;;;13.27;89.84
2761;BME280;15420;48.636;9.798;2023-02-17T10:59:40;97522.19;;;13.28;89.49
2761;BME280;15420;48.636;9.798;2023-02-17T11:02:32;97519.69;;;13.33;89.01
2761;BME280;15420;48.636;9.798;2023-02-17T11:05:03;97513.59;;;13.29;88.24
2761;BME280;15420;48.636;9.798;2023-02-17T11:07:38;97520.56;;;13.33;87.74
2761;BME280;15420;48.636;9.798;2023-02-17T11:12:55;97506.84;;;13.36;87.63
2761;BME280;15420;48.636;9.798;2023-02-17T11:15:26;97509.53;;;13.40;88.46
2761;BME280;15420;48.636;9.798;2023-02-17T11:17:54;97495.75;;;13.43;87.90
2761;BME280;15420;48.636;9.798;2023-02-17T11:23:06;97498.56;;;13.54;87.05
2761;BME280;15420;48.636;9.798;2023-02-17T11:25:40;97495.97;;;13.54;86.76
2761;BME280;15420;48.636;9.798;2023-02-17T11:28:13;97482.28;;;13.61;87.00
2761;BME280;15420;48.636;9.798;2023-02-17T11:30:49;97478.13;;;13.67;86.12
2761;BME280;15420;48.636;9.798;2023-02-17T11:33:22;97474.72;;;13.70;86.76
2761;BME280;15420;48.636;9.798;2023-02-17T11:35:55;97470.50;;;13.75;85.92
2761;BME280;15420;48.636;9.798;2023-02-17T11:38:32;97470.59;;;13.80;86.20
2761;BME280;15420;48.636;9.798;2023-02-17T11:41:00;97465.44;;;13.81;86.23
2761;BME280;15420;48.636;9.798;2023-02-17T11:43:30;97463.75;;;13.83;85.51
2761;BME280;15420;48.636;9.798;2023-02-17T11:48:35;97459.53;;;13.88;84.75
2761;BME280;15420;48.636;9.798;2023-02-17T11:56:25;97455.53;;;14.05;84.76
2761;BME280;15420;48.636;9.798;2023-02-17T12:07:41;97441.25;;;14.29;84.51
2761;BME280;15420;48.636;9.798;2023-02-17T12:13:13;97441.38;;;14.35;84.02
2761;BME280;15420;48.636;9.798;2023-02-17T12:27:08;97442.50;;;14.49;84.53
2761;BME280;15420;48.636;9.798;2023-02-17T12:30:13;97452.91;;;14.51;85.03
2761;BME280;15420;48.636;9.798;2023-02-17T12:35:39;97448.66;;;14.56;85.31
2761;BME280;15420;48.636;9.798;2023-02-17T12:38:17;97450.41;;;14.60;85.45
2761;BME280;15420;48.636;9.798;2023-02-17T12:41:06;97461.69;;;14.62;84.38
2761;BME280;15420;48.636;9.798;2023-02-17T12:43:55;97470.31;;;14.61;84.67
2761;BME280;15420;48.636;9.798;2023-02-17T12:46:31;97461.66;;;14.59;84.68
2761;BME280;15420;48.636;9.798;2023-02-17T12:49:15;97469.47;;;14.62;84.63
2761;BME280;15420;48.636;9.798;2023-02-17T12:52:09;97466.88;;;14.62;84.73
2761;BME280;15420;48.636;9.798;2023-02-17T12:54:58;97471.25;;;14.66;85.27
2761;BME280;15420;48.636;9.798;2023-02-17T13:00:05;97467.81;;;14.67;86.27
2761;BME280;15420;48.636;9.798;2023-02-17T13:02:39;97461.78;;;14.68;85.77
2761;BME280;15420;48.636;9.798;2023-02-17T13:05:10;97458.38;;;14.70;85.96
2761;BME280;15420;48.636;9.798;2023-02-17T13:10:32;97457.63;;;14.78;85.55
2761;BME280;15420;48.636;9.798;2023-02-17T13:13:50;97447.25;;;14.78;85.45
2761;BME280;15420;48.636;9.798;2023-02-17T13:16:09;97446.47;;;14.85;84.86
2761;BME280;15420;48.636;9.798;2023-02-17T13:18:44;97449.91;;;14.82;84.89
2761;BME280;15420;48.636;9.798;2023-02-17T13:24:03;97442.25;;;14.91;84.61
2761;BME280;15420;48.636;9.798;2023-02-17T13:26:42;97437.09;;;14.94;84.16
2761;BME280;15420;48.636;9.798;2023-02-17T13:31:58;97432.88;;;14.99;84.11
2761;BME280;15420;48.636;9.798;2023-02-17T13:36:54;97434.66;;;15.03;84.21
2761;BME280;15420;48.636;9.798;2023-02-17T13:41:57;97435.53;;;15.05;84.56
2761;BME280;15420;48.636;9.798;2023-02-17T13:44:42;97434.72;;;15.08;83.96
2761;BME280;15420;48.636;9.798;2023-02-17T13:47:21;97438.16;;;15.07;84.26
2761;BME280;15420;48.636;9.798;2023-02-17T13:49:54;97439.94;;;15.10;84.17
2761;BME280;15420;48.636;9.798;2023-02-17T13:52:26;97434.72;;;15.10;84.70
2761;BME280;15420;48.636;9.798;2023-02-17T14:02:55;97435.66;;;15.13;84.44
2761;BME280;15420;48.636;9.798;2023-02-17T14:05:35;97435.66;;;15.13;83.61
2761;BME280;15420;48.636;9.798;2023-02-17T14:08:17;97428.69;;;15.11;83.73
2761;BME280;15420;48.636;9.798;2023-02-17T14:10:44;97431.31;;;15.12;83.50
2761;BME280;15420;48.636;9.798;2023-02-17T14:13:11;97437.41;;;15.16;83.30
2761;BME280;15420;48.636;9.798;2023-02-17T14:15:48;97433.06;;;15.13;83.30
2761;BME280;15420;48.636;9.798;2023-02-17T14:18:31;97436.56;;;15.17;83.67
2761;BME280;15420;48.636;9.798;2023-02-17T14:21:05;97423.59;;;15.18;83.41
2761;BME280;15420;48.636;9.798;2023-02-17T14:29:00;97433.13;;;15.18;82.99
2761;BME280;15420;48.636;9.798;2023-02-17T14:31:40;97422.75;;;15.19;83.01
2761;BME280;15420;48.636;9.798;2023-02-17T14:34:12;97413.22;;;15.18;82.91
2761;BME280;15420;48.636;9.798;2023-02-17T14:36:44;97419.31;;;15.20;82.60
2761;BME280;15420;48.636;9.798;2023-02-17T14:39:15;97429.75;;;15.25;82.59
2761;BME280;15420;48.636;9.798;2023-02-17T14:41:42;97417.63;;;15.25;83.03
2761;BME280;15420;48.636;9.798;2023-02-17T14:44:10;97421.13;;;15.27;82.61
2761;BME280;15420;48.636;9.798;2023-02-17T14:46:36;97409.00;;;15.28;83.08
2761;BME280;15420;48.636;9.798;2023-02-17T14:49:03;97414.25;;;15.31;83.23
2761;BME280;15420;48.636;9.798;2023-02-17T14:51:34;97414.28;;;15.32;82.51
2761;BME280;15420;48.636;9.798;2023-02-17T14:54:03;97412.53;;;15.33;82.77
2761;BME280;15420;48.636;9.798;2023-02-17T14:56:39;97416.06;;;15.38;82.41
2761;BME280;15420;48.636;9.798;2023-02-17T14:59:07;97412.63;;;15.39;83.51
2761;BME280;15420;48.636;9.798;2023-02-17T15:01:34;97418.66;;;15.38;82.75
2761;BME280;15420;48.636;9.798;2023-02-17T15:04:00;97401.31;;;15.35;82.92
2761;BME280;15420;48.636;9.798;2023-02-17T15:06:42;97410.00;;;15.37;82.84
2761;BME280;15420;48.636;9.798;2023-02-17T15:09:12;97397.00;;;15.36;82.96
2761;BME280;15420;48.636;9.798;2023-02-17T15:11:39;97395.25;;;15.35;83.21
2761;BME280;15420;48.636;9.798;2023-02-17T15:14:12;97391.78;;;15.34;83.09
2761;BME280;15420;48.636;9.798;2023-02-17T15:16:39;97400.41;;;15.32;83.00
2761;BME280;15420;48.636;9.798;2023-02-17T15:19:05;97399.53;;;15.31;82.87
2761;BME280;15420;48.636;9.798;2023-02-17T15:21:33;97402.13;;;15.30;83.06
2761;BME280;15420;48.636;9.798;2023-02-17T15:24:07;97396.03;;;15.28;83.13
2761;BME280;15420;48.636;9.798;2023-02-17T15:26:38;97396.88;;;15.27;83.52
2761;BME280;15420;48.636;9.798;2023-02-17T15:29:17;97395.19;;;15.29;82.83
2761;BME280;15420;48.636;9.798;2023-02-17T15:31:47;97404.69;;;15.28;83.31
2761;BME280;15420;48.636;9.798;2023-02-17T15:34:18;97411.59;;;15.26;83.47
2761;BME280;15420;48.636;9.798;2023-02-17T15:36:45;97402.06;;;15.25;83.45
2761;BME280;15420;48.636;9.798;2023-02-17T15:39:15;97395.13;;;15.24;82.96
2761;BME280;15420;48.636;9.798;2023-02-17T15:41:44;97402.91;;;15.24;83.25